Wetterstation Oberdrees
Wetterdaten: aktuell Mittwoch, 17.08.2022 16:30
Datum Zeit Temp. A. Feuchte A. Luftdruck Regen Wind Richtung Richtung Taupunkt Windchill Windben
17.08.2022 16:30 24,2 C 64 % 1011,8 hPa 0,0 l/m 4,8 km/h (1 Bft) N-NW 348 16,9 C 24,2 C 8,0 km/h (2 Bft)
17.08.2022 16:25 24,2 C 64 % 1012,0 hPa 0,0 l/m 5,0 km/h (1 Bft) NW 308 16,9 C 24,2 C 11,3 km/h (2 Bft)
17.08.2022 16:20 23,8 C 66 % 1012,1 hPa 0,0 l/m 5,0 km/h (1 Bft) W 263 17,1 C 23,8 C 12,9 km/h (3 Bft)
17.08.2022 16:15 23,6 C 66 % 1012,1 hPa 0,0 l/m 6,2 km/h (2 Bft) W-SW 246 16,9 C 23,6 C 12,9 km/h (3 Bft)
17.08.2022 16:10 23,6 C 65 % 1012,2 hPa 0,0 l/m 6,0 km/h (2 Bft) W-NW 290 16,6 C 23,6 C 12,9 km/h (3 Bft)
17.08.2022 16:05 23,8 C 65 % 1012,2 hPa 0,0 l/m 4,7 km/h (1 Bft) W-NW 302 16,8 C 23,8 C 12,9 km/h (3 Bft)
17.08.2022 16:00 23,8 C 64 % 1012,4 hPa 0,0 l/m 6,1 km/h (2 Bft) N-NW 333 16,6 C 23,8 C 14,5 km/h (3 Bft)
17.08.2022 15:55 24,0 C 64 % 1012,3 hPa 0,0 l/m 5,0 km/h (1 Bft) NW 315 16,8 C 24,0 C 12,9 km/h (3 Bft)
17.08.2022 15:50 24,3 C 64 % 1012,4 hPa 0,0 l/m 5,0 km/h (1 Bft) W-NW 300 17,0 C 24,3 C 11,3 km/h (2 Bft)
17.08.2022 15:45 24,5 C 63 % 1012,2 hPa 0,0 l/m 6,5 km/h (2 Bft) W 281 17,0 C 24,5 C 14,5 km/h (3 Bft)
17.08.2022 15:40 24,7 C 63 % 1012,2 hPa 0,0 l/m 7,4 km/h (2 Bft) W 268 17,2 C 24,4 C 12,9 km/h (3 Bft)
17.08.2022 15:35 24,7 C 64 % 1012,2 hPa 0,0 l/m 4,8 km/h (1 Bft) W-NW 288 17,4 C 24,7 C 11,3 km/h (2 Bft)
17.08.2022 15:30 24,5 C 63 % 1012,2 hPa 0,0 l/m 4,9 km/h (1 Bft) NW 323 17,0 C 24,5 C 14,5 km/h (3 Bft)
17.08.2022 15:25 24,3 C 64 % 1012,2 hPa 0,0 l/m 5,1 km/h (1 Bft) W 281 17,0 C 24,3 C 12,9 km/h (3 Bft)
17.08.2022 15:20 24,4 C 63 % 1012,2 hPa 0,0 l/m 5,9 km/h (2 Bft) W-NW 299 16,9 C 24,4 C 14,5 km/h (3 Bft)
17.08.2022 15:15 24,6 C 63 % 1012,3 hPa 0,0 l/m 4,8 km/h (1 Bft) N-NW 329 17,1 C 24,6 C 11,3 km/h (2 Bft)
17.08.2022 15:10 24,6 C 63 % 1012,2 hPa 0,0 l/m 4,9 km/h (1 Bft) N 355 17,1 C 24,6 C 8,0 km/h (2 Bft)
17.08.2022 15:05 24,4 C 64 % 1012,2 hPa 0,0 l/m 3,5 km/h (1 Bft) W 261 17,1 C 24,4 C 8,0 km/h (2 Bft)
17.08.2022 15:00 24,6 C 63 % 1012,2 hPa 0,0 l/m 4,9 km/h (1 Bft) NW 306 17,1 C 24,6 C 12,9 km/h (3 Bft)
17.08.2022 14:55 24,8 C 63 % 1012,3 hPa 0,0 l/m 5,9 km/h (2 Bft) W 260 17,3 C 24,8 C 12,9 km/h (3 Bft)
17.08.2022 14:50 24,8 C 63 % 1012,2 hPa 0,0 l/m 5,0 km/h (1 Bft) W 281 17,3 C 24,8 C 11,3 km/h (2 Bft)
17.08.2022 14:45 24,8 C 62 % 1012,2 hPa 0,0 l/m 6,2 km/h (2 Bft) NW 317 17,0 C 24,8 C 16,1 km/h (3 Bft)
17.08.2022 14:40 25,1 C 61 % 1012,3 hPa 0,0 l/m 6,4 km/h (2 Bft) W 278 17,0 C 25,1 C 14,5 km/h (3 Bft)
17.08.2022 14:35 24,9 C 62 % 1012,3 hPa 0,0 l/m 6,0 km/h (2 Bft) NW 313 17,1 C 24,9 C 14,5 km/h (3 Bft)
17.08.2022 14:30 24,8 C 61 % 1012,3 hPa 0,0 l/m 7,2 km/h (2 Bft) N-NW 336 16,8 C 24,6 C 16,1 km/h (3 Bft)
17.08.2022 14:25 25,0 C 60 % 1012,3 hPa 0,0 l/m 6,2 km/h (2 Bft) W-NW 294 16,7 C 25,0 C 11,3 km/h (2 Bft)
17.08.2022 14:20 25,0 C 61 % 1012,2 hPa 0,0 l/m 5,8 km/h (2 Bft) W 271 16,9 C 25,0 C 14,5 km/h (3 Bft)
17.08.2022 14:15 24,6 C 62 % 1012,1 hPa 0,0 l/m 4,7 km/h (1 Bft) N 360 16,8 C 24,6 C 11,3 km/h (2 Bft)
17.08.2022 14:10 24,6 C 62 % 1012,2 hPa 0,0 l/m 6,7 km/h (2 Bft) NW 308 16,8 C 24,5 C 14,5 km/h (3 Bft)
17.08.2022 14:05 24,4 C 63 % 1012,3 hPa 0,0 l/m 5,3 km/h (1 Bft) N 349 16,9 C 24,4 C 12,9 km/h (3 Bft)
17.08.2022 14:00 24,2 C 63 % 1012,2 hPa 0,0 l/m 6,2 km/h (2 Bft) NW 305 16,7 C 24,2 C 16,1 km/h (3 Bft)
17.08.2022 13:55 23,9 C 64 % 1012,0 hPa 0,0 l/m 6,3 km/h (2 Bft) NW 317 16,7 C 23,9 C 16,1 km/h (3 Bft)
17.08.2022 13:50 24,0 C 64 % 1012,1 hPa 0,0 l/m 5,7 km/h (2 Bft) NW 313 16,8 C 24,0 C 12,9 km/h (3 Bft)
17.08.2022 13:45 24,0 C 62 % 1012,1 hPa 0,0 l/m 7,1 km/h (2 Bft) NO 35 16,3 C 23,8 C 17,7 km/h (3 Bft)
17.08.2022 13:40 23,9 C 64 % 1012,1 hPa 0,0 l/m 5,9 km/h (2 Bft) W 264 16,7 C 23,9 C 16,1 km/h (3 Bft)
17.08.2022 13:35 23,6 C 66 % 1012,1 hPa 0,0 l/m 5,0 km/h (1 Bft) W 272 16,9 C 23,6 C 14,5 km/h (3 Bft)
17.08.2022 13:30 23,3 C 67 % 1012,1 hPa 0,0 l/m 4,9 km/h (1 Bft) W-NW 295 16,8 C 23,3 C 12,9 km/h (3 Bft)
17.08.2022 13:25 23,0 C 68 % 1012,2 hPa 0,0 l/m 5,6 km/h (2 Bft) W-SW 256 16,8 C 23,0 C 12,9 km/h (3 Bft)
17.08.2022 13:20 22,9 C 71 % 1012,2 hPa 0,0 l/m 4,4 km/h (1 Bft) NW 322 17,4 C 22,9 C 11,3 km/h (2 Bft)
17.08.2022 13:15 22,8 C 70 % 1012,4 hPa 0,0 l/m 4,5 km/h (1 Bft) NW 311 17,0 C 22,8 C 8,0 km/h (2 Bft)
17.08.2022 13:10 22,8 C 71 % 1012,3 hPa 0,0 l/m 4,5 km/h (1 Bft) N-NW 336 17,3 C 22,8 C 9,7 km/h (2 Bft)
17.08.2022 13:05 22,7 C 71 % 1012,3 hPa 0,0 l/m 4,8 km/h (1 Bft) N-NW 331 17,2 C 22,7 C 9,7 km/h (2 Bft)
17.08.2022 13:00 22,9 C 70 % 1012,2 hPa 0,0 l/m 3,0 km/h (1 Bft) N-NO 22 17,1 C 22,9 C 8,0 km/h (2 Bft)
17.08.2022 12:55 22,9 C 70 % 1012,2 hPa 0,0 l/m 4,3 km/h (1 Bft) NW 311 17,1 C 22,9 C 9,7 km/h (2 Bft)
17.08.2022 12:50 23,0 C 69 % 1012,2 hPa 0,0 l/m 4,4 km/h (1 Bft) N-NW 327 17,0 C 23,0 C 9,7 km/h (2 Bft)
17.08.2022 12:45 22,9 C 70 % 1012,2 hPa 0,0 l/m 3,9 km/h (1 Bft) NW 309 17,1 C 22,9 C 11,3 km/h (2 Bft)
17.08.2022 12:40 23,0 C 69 % 1012,1 hPa 0,0 l/m 5,8 km/h (2 Bft) W-NW 288 17,0 C 23,0 C 14,5 km/h (3 Bft)
17.08.2022 12:35 23,1 C 71 % 1012,2 hPa 0,0 l/m 5,9 km/h (2 Bft) N-NO 19 17,5 C 23,1 C 12,9 km/h (3 Bft)
17.08.2022 12:30 22,9 C 71 % 1012,2 hPa 0,0 l/m 6,1 km/h (2 Bft) W 269 17,4 C 22,9 C 12,9 km/h (3 Bft)
17.08.2022 12:25 22,8 C 71 % 1012,1 hPa 0,0 l/m 5,2 km/h (1 Bft) N 5 17,3 C 22,8 C 12,9 km/h (3 Bft)
17.08.2022 12:20 22,8 C 72 % 1012,2 hPa 0,0 l/m 5,8 km/h (2 Bft) NW 307 17,5 C 22,8 C 12,9 km/h (3 Bft)
17.08.2022 12:15 22,7 C 75 % 1012,0 hPa 0,0 l/m 5,9 km/h (2 Bft) N 355 18,0 C 22,7 C 12,9 km/h (3 Bft)
17.08.2022 12:10 22,3 C 75 % 1011,9 hPa 0,0 l/m 4,5 km/h (1 Bft) N 10 17,6 C 22,3 C 12,9 km/h (3 Bft)
17.08.2022 12:05 22,0 C 78 % 1011,9 hPa 0,0 l/m 4,4 km/h (1 Bft) W-NW 298 18,0 C 22,0 C 9,7 km/h (2 Bft)
17.08.2022 12:00 21,7 C 78 % 1012,0 hPa 0,0 l/m 4,2 km/h (1 Bft) N-NW 327 17,7 C 21,7 C 9,7 km/h (2 Bft)
17.08.2022 11:55 21,6 C 79 % 1011,9 hPa 0,0 l/m 3,8 km/h (1 Bft) N-NW 330 17,8 C 21,6 C 8,0 km/h (2 Bft)
17.08.2022 11:50 21,2 C 81 % 1012,0 hPa 0,0 l/m 3,7 km/h (1 Bft) NW 313 17,8 C 21,2 C 8,0 km/h (2 Bft)
17.08.2022 11:45 20,7 C 82 % 1011,9 hPa 0,0 l/m 3,1 km/h (1 Bft) N-NO 28 17,5 C 20,7 C 8,0 km/h (2 Bft)
17.08.2022 11:40 20,3 C 85 % 1012,0 hPa 0,0 l/m 0,1 km/h (0 Bft) NW 323 17,7 C 20,3 C 3,2 km/h (1 Bft)
17.08.2022 11:35 20,1 C 83 % 1012,1 hPa 0,0 l/m 1,1 km/h (1 Bft) NW 323 17,1 C 20,1 C 6,4 km/h (2 Bft)
17.08.2022 11:30 20,1 C 83 % 1011,9 hPa 0,0 l/m 1,0 km/h (0 Bft) NW 319 17,1 C 20,1 C 3,2 km/h (1 Bft)
17.08.2022 11:25 20,1 C 82 % 1012,0 hPa 0,0 l/m 0,5 km/h (0 Bft) NW 315 16,9 C 20,1 C 4,8 km/h (1 Bft)
17.08.2022 11:20 20,2 C 82 % 1011,9 hPa 0,0 l/m 0,1 km/h (0 Bft) N 355 17,0 C 20,2 C 1,6 km/h (1 Bft)
17.08.2022 11:15 20,3 C 81 % 1012,0 hPa 0,2 l/m 0,8 km/h (0 Bft) NW 325 16,9 C 20,3 C 4,8 km/h (1 Bft)
17.08.2022 11:10 20,5 C 80 % 1012,0 hPa 0,0 l/m 4,7 km/h (1 Bft) NW 324 16,9 C 20,5 C 8,0 km/h (2 Bft)
17.08.2022 11:05 20,8 C 78 % 1012,1 hPa 0,0 l/m 4,7 km/h (1 Bft) NW 322 16,8 C 20,8 C 8,0 km/h (2 Bft)
17.08.2022 11:00 21,1 C 77 % 1012,1 hPa 0,0 l/m 3,2 km/h (1 Bft) N-NW 336 16,9 C 21,1 C 8,0 km/h (2 Bft)
17.08.2022 10:55 21,2 C 76 % 1012,1 hPa 0,0 l/m 3,3 km/h (1 Bft) NW 317 16,8 C 21,2 C 8,0 km/h (2 Bft)
17.08.2022 10:50 21,4 C 75 % 1012,1 hPa 0,0 l/m 1,7 km/h (1 Bft) NW 324 16,8 C 21,4 C 6,4 km/h (2 Bft)
17.08.2022 10:45 21,6 C 73 % 1012,0 hPa 0,0 l/m 4,0 km/h (1 Bft) N-NO 15 16,5 C 21,6 C 8,0 km/h (2 Bft)
17.08.2022 10:40 21,6 C 72 % 1012,0 hPa 0,0 l/m 4,9 km/h (1 Bft) NO 34 16,3 C 21,6 C 11,3 km/h (2 Bft)
17.08.2022 10:35 21,7 C 71 % 1012,0 hPa 0,0 l/m 2,5 km/h (1 Bft) N-NO 29 16,2 C 21,7 C 6,4 km/h (2 Bft)
17.08.2022 10:30 21,7 C 71 % 1012,0 hPa 0,0 l/m 3,8 km/h (1 Bft) N-NO 20 16,2 C 21,7 C 8,0 km/h (2 Bft)
17.08.2022 10:25 21,7 C 72 % 1011,7 hPa 0,0 l/m 2,8 km/h (1 Bft) NO 54 16,4 C 21,7 C 6,4 km/h (2 Bft)
17.08.2022 10:20 21,8 C 72 % 1011,6 hPa 0,0 l/m 2,8 km/h (1 Bft) W-NW 301 16,5 C 21,8 C 8,0 km/h (2 Bft)
17.08.2022 10:15 21,8 C 73 % 1011,4 hPa 0,0 l/m 2,6 km/h (1 Bft) NW 312 16,7 C 21,8 C 6,4 km/h (2 Bft)
17.08.2022 10:10 21,8 C 73 % 1011,5 hPa 0,0 l/m 1,6 km/h (1 Bft) N-NO 26 16,7 C 21,8 C 6,4 km/h (2 Bft)
17.08.2022 10:05 21,9 C 73 % 1011,6 hPa 0,0 l/m 2,3 km/h (1 Bft) NO 38 16,8 C 21,9 C 6,4 km/h (2 Bft)
17.08.2022 10:00 22,0 C 72 % 1011,4 hPa 0,0 l/m 3,0 km/h (1 Bft) N-NO 25 16,7 C 22,0 C 6,4 km/h (2 Bft)
17.08.2022 09:55 22,1 C 71 % 1011,3 hPa 0,0 l/m 4,0 km/h (1 Bft) N 355 16,6 C 22,1 C 8,0 km/h (2 Bft)
17.08.2022 09:50 22,2 C 71 % 1011,3 hPa 0,0 l/m 2,4 km/h (1 Bft) N 9 16,7 C 22,2 C 6,4 km/h (2 Bft)
17.08.2022 09:45 22,3 C 70 % 1011,3 hPa 0,0 l/m 5,3 km/h (1 Bft) N 5 16,6 C 22,3 C 11,3 km/h (2 Bft)
17.08.2022 09:40 22,4 C 69 % 1011,2 hPa 0,0 l/m 4,8 km/h (1 Bft) N 5 16,4 C 22,4 C 8,0 km/h (2 Bft)
17.08.2022 09:35 22,4 C 68 % 1011,1 hPa 0,0 l/m 4,3 km/h (1 Bft) N-NO 23 16,2 C 22,4 C 8,0 km/h (2 Bft)
17.08.2022 09:30 22,4 C 68 % 1011,1 hPa 0,0 l/m 5,1 km/h (1 Bft) N-NO 21 16,2 C 22,4 C 11,3 km/h (2 Bft)
17.08.2022 09:25 22,3 C 68 % 1011,1 hPa 0,0 l/m 1,9 km/h (1 Bft) N 5 16,1 C 22,3 C 6,4 km/h (2 Bft)
17.08.2022 09:20 22,3 C 68 % 1011,1 hPa 0,0 l/m 2,6 km/h (1 Bft) NW 311 16,1 C 22,3 C 4,8 km/h (1 Bft)
17.08.2022 09:15 22,1 C 69 % 1011,0 hPa 0,0 l/m 1,4 km/h (1 Bft) NW 315 16,1 C 22,1 C 4,8 km/h (1 Bft)
17.08.2022 09:10 22,0 C 69 % 1011,0 hPa 0,0 l/m 1,4 km/h (1 Bft) NW 317 16,0 C 22,0 C 4,8 km/h (1 Bft)
17.08.2022 09:05 21,8 C 70 % 1010,7 hPa 0,0 l/m 1,5 km/h (1 Bft) W-NW 298 16,1 C 21,8 C 4,8 km/h (1 Bft)
17.08.2022 09:00 21,6 C 69 % 1010,7 hPa 0,0 l/m 0,3 km/h (0 Bft) W-NW 297 15,7 C 21,6 C 4,8 km/h (1 Bft)
17.08.2022 08:55 21,4 C 70 % 1010,6 hPa 0,0 l/m 0,1 km/h (0 Bft) N 5 15,7 C 21,4 C 1,6 km/h (1 Bft)
17.08.2022 08:50 21,3 C 70 % 1010,7 hPa 0,0 l/m 0,0 km/h (0 Bft) N 5 15,6 C 21,3 C 0,0 km/h (0 Bft)
17.08.2022 08:45 21,3 C 70 % 1010,7 hPa 0,0 l/m 0,0 km/h (0 Bft) N 5 15,6 C 21,3 C 0,0 km/h (0 Bft)
17.08.2022 08:40 21,2 C 71 % 1010,6 hPa 0,0 l/m 0,1 km/h (0 Bft) N 9 15,7 C 21,2 C 1,6 km/h (1 Bft)
17.08.2022 08:35 21,0 C 71 % 1010,6 hPa 0,0 l/m 1,8 km/h (1 Bft) N 9 15,5 C 21,0 C 4,8 km/h (1 Bft)
17.08.2022 08:30 20,9 C 71 % 1010,6 hPa 0,0 l/m 3,8 km/h (1 Bft) N 355 15,4 C 20,9 C 8,0 km/h (2 Bft)
17.08.2022 08:25 20,9 C 71 % 1010,4 hPa 0,0 l/m 3,1 km/h (1 Bft) N-NO 19 15,4 C 20,9 C 6,4 km/h (2 Bft)
17.08.2022 08:20 20,9 C 72 % 1010,5 hPa 0,0 l/m 3,5 km/h (1 Bft) NO 36 15,7 C 20,9 C 8,0 km/h (2 Bft)
17.08.2022 08:15 20,9 C 73 % 1010,6 hPa 0,0 l/m 4,1 km/h (1 Bft) NO 43 15,9 C 20,9 C 12,9 km/h (3 Bft)
17.08.2022 08:10 20,9 C 72 % 1010,3 hPa 0,0 l/m 1,2 km/h (1 Bft) N-NO 26 15,7 C 20,9 C 6,4 km/h (2 Bft)
17.08.2022 08:05 20,9 C 72 % 1010,3 hPa 0,0 l/m 1,8 km/h (1 Bft) NO 36 15,7 C 20,9 C 8,0 km/h (2 Bft)
17.08.2022 08:00 20,9 C 71 % 1010,2 hPa 0,0 l/m 0,6 km/h (0 Bft) N 5 15,4 C 20,9 C 6,4 km/h (2 Bft)
17.08.2022 07:55 20,9 C 71 % 1010,2 hPa 0,0 l/m 0,0 km/h (0 Bft) O-SO 115 15,4 C 20,9 C 0,0 km/h (0 Bft)
17.08.2022 07:50 20,9 C 71 % 1010,1 hPa 0,0 l/m 0,0 km/h (0 Bft) O-SO 115 15,4 C 20,9 C 0,0 km/h (0 Bft)
17.08.2022 07:45 20,9 C 71 % 1010,0 hPa 0,0 l/m 0,0 km/h (0 Bft) O-SO 115 15,4 C 20,9 C 1,6 km/h (1 Bft)
17.08.2022 07:40 20,9 C 71 % 1010,0 hPa 0,0 l/m 0,6 km/h (0 Bft) O-SO 115 15,4 C 20,9 C 3,2 km/h (1 Bft)
17.08.2022 07:35 20,9 C 71 % 1009,9 hPa 0,0 l/m 0,6 km/h (0 Bft) O-SO 115 15,4 C 20,9 C 3,2 km/h (1 Bft)
17.08.2022 07:30 20,8 C 71 % 1009,9 hPa 0,0 l/m 0,3 km/h (0 Bft) O-SO 113 15,3 C 20,8 C 3,2 km/h (1 Bft)
17.08.2022 07:25 20,8 C 71 % 1009,8 hPa 0,0 l/m 0,0 km/h (0 Bft) O-SO 111 15,3 C 20,8 C 0,0 km/h (0 Bft)
17.08.2022 07:20 20,8 C 70 % 1009,9 hPa 0,0 l/m 0,0 km/h (0 Bft) O-SO 113 15,1 C 20,8 C 0,0 km/h (0 Bft)
17.08.2022 07:15 20,8 C 70 % 1009,9 hPa 0,0 l/m 0,0 km/h (0 Bft) O-SO 112 15,1 C 20,8 C 0,0 km/h (0 Bft)
17.08.2022 07:10 20,9 C 70 % 1009,9 hPa 0,0 l/m 0,0 km/h (0 Bft) O-SO 111 15,2 C 20,9 C 0,0 km/h (0 Bft)
17.08.2022 07:05 20,9 C 70 % 1009,9 hPa 0,0 l/m 0,1 km/h (0 Bft) O-SO 111 15,2 C 20,9 C 3,2 km/h (1 Bft)
17.08.2022 07:00 21,0 C 70 % 1010,0 hPa 0,0 l/m 0,4 km/h (0 Bft) O-SO 108 15,3 C 21,0 C 3,2 km/h (1 Bft)
17.08.2022 06:55 20,9 C 70 % 1010,0 hPa 0,0 l/m 1,1 km/h (1 Bft) O-SO 108 15,2 C 20,9 C 4,8 km/h (1 Bft)
17.08.2022 06:50 20,9 C 70 % 1010,0 hPa 0,0 l/m 1,9 km/h (1 Bft) O-SO 105 15,2 C 20,9 C 4,8 km/h (1 Bft)
17.08.2022 06:45 20,8 C 70 % 1009,9 hPa 0,0 l/m 0,7 km/h (0 Bft) O-SO 115 15,1 C 20,8 C 4,8 km/h (1 Bft)
17.08.2022 06:40 20,7 C 70 % 1010,0 hPa 0,0 l/m 0,0 km/h (0 Bft) O 95 15,0 C 20,7 C 0,0 km/h (0 Bft)
17.08.2022 06:35 20,6 C 71 % 1009,9 hPa 0,0 l/m 0,0 km/h (0 Bft) O-NO 66 15,2 C 20,6 C 0,0 km/h (0 Bft)
17.08.2022 06:30 20,4 C 71 % 1009,8 hPa 0,0 l/m 0,0 km/h (0 Bft) SO 126 15,0 C 20,4 C 0,0 km/h (0 Bft)
17.08.2022 06:25 20,1 C 73 % 1009,9 hPa 0,0 l/m 0,0 km/h (0 Bft) O 99 15,1 C 20,1 C 0,0 km/h (0 Bft)
17.08.2022 06:20 19,6 C 75 % 1009,9 hPa 0,0 l/m 0,0 km/h (0 Bft) O-SO 123 15,0 C 19,6 C 0,0 km/h (0 Bft)
17.08.2022 06:15 18,8 C 77 % 1009,9 hPa 0,0 l/m 0,0 km/h (0 Bft) O-SO 108 14,7 C 18,8 C 0,0 km/h (0 Bft)
17.08.2022 06:10 18,2 C 78 % 1010,1 hPa 0,0 l/m 0,0 km/h (0 Bft) SO 125 14,3 C 18,2 C 0,0 km/h (0 Bft)
17.08.2022 06:05 18,0 C 79 % 1009,9 hPa 0,0 l/m 0,0 km/h (0 Bft) S 190 14,3 C 18,0 C 0,0 km/h (0 Bft)
17.08.2022 06:00 18,0 C 79 % 1009,9 hPa 0,0 l/m 0,0 km/h (0 Bft) S 190 14,3 C 18,0 C 0,0 km/h (0 Bft)
17.08.2022 05:55 18,0 C 78 % 1009,9 hPa 0,0 l/m 0,0 km/h (0 Bft) S 190 14,1 C 18,0 C 0,0 km/h (0 Bft)
17.08.2022 05:50 18,1 C 79 % 1009,9 hPa 0,0 l/m 0,0 km/h (0 Bft) S 190 14,4 C 18,1 C 0,0 km/h (0 Bft)
17.08.2022 05:45 18,1 C 78 % 1009,8 hPa 0,0 l/m 0,0 km/h (0 Bft) S 190 14,2 C 18,1 C 0,0 km/h (0 Bft)
17.08.2022 05:40 18,1 C 78 % 1009,9 hPa 0,0 l/m 0,0 km/h (0 Bft) S 190 14,2 C 18,1 C 0,0 km/h (0 Bft)
17.08.2022 05:35 18,0 C 79 % 1009,9 hPa 0,0 l/m 0,0 km/h (0 Bft) S 190 14,3 C 18,0 C 0,0 km/h (0 Bft)
17.08.2022 05:30 17,9 C 78 % 1009,8 hPa 0,0 l/m 0,0 km/h (0 Bft) S 190 14,0 C 17,9 C 0,0 km/h (0 Bft)
17.08.2022 05:25 18,0 C 78 % 1009,8 hPa 0,0 l/m 0,0 km/h (0 Bft) S 190 14,1 C 18,0 C 0,0 km/h (0 Bft)
17.08.2022 05:20 18,1 C 77 % 1009,9 hPa 0,0 l/m 0,0 km/h (0 Bft) S 190 14,0 C 18,1 C 0,0 km/h (0 Bft)
17.08.2022 05:15 18,2 C 77 % 1009,8 hPa 0,0 l/m 0,0 km/h (0 Bft) S 190 14,1 C 18,2 C 0,0 km/h (0 Bft)
17.08.2022 05:10 18,2 C 77 % 1009,8 hPa 0,0 l/m 0,0 km/h (0 Bft) S 190 14,1 C 18,2 C 0,0 km/h (0 Bft)
17.08.2022 05:05 18,4 C 76 % 1009,8 hPa 0,0 l/m 0,0 km/h (0 Bft) S 190 14,1 C 18,4 C 0,0 km/h (0 Bft)
17.08.2022 05:00 18,6 C 76 % 1009,9 hPa 0,0 l/m 0,0 km/h (0 Bft) S 190 14,3 C 18,6 C 0,0 km/h (0 Bft)
17.08.2022 04:55 18,8 C 75 % 1010,0 hPa 0,0 l/m 0,0 km/h (0 Bft) S 190 14,3 C 18,8 C 0,0 km/h (0 Bft)
17.08.2022 04:50 18,8 C 75 % 1010,0 hPa 0,0 l/m 0,0 km/h (0 Bft) S 190 14,3 C 18,8 C 0,0 km/h (0 Bft)
17.08.2022 04:45 18,8 C 75 % 1009,9 hPa 0,0 l/m 0,0 km/h (0 Bft) S-SW 194 14,3 C 18,8 C 0,0 km/h (0 Bft)
17.08.2022 04:40 18,8 C 75 % 1010,0 hPa 0,0 l/m 0,0 km/h (0 Bft) SW 214 14,3 C 18,8 C 0,0 km/h (0 Bft)
17.08.2022 04:35 18,8 C 75 % 1010,0 hPa 0,0 l/m 0,0 km/h (0 Bft) SW 214 14,3 C 18,8 C 0,0 km/h (0 Bft)
17.08.2022 04:30 18,9 C 75 % 1010,0 hPa 0,0 l/m 0,0 km/h (0 Bft) SW 214 14,4 C 18,9 C 0,0 km/h (0 Bft)
17.08.2022 04:25 18,9 C 75 % 1010,0 hPa 0,0 l/m 0,0 km/h (0 Bft) SW 214 14,4 C 18,9 C 0,0 km/h (0 Bft)
17.08.2022 04:20 18,9 C 75 % 1010,0 hPa 0,0 l/m 0,0 km/h (0 Bft) SW 214 14,4 C 18,9 C 0,0 km/h (0 Bft)
17.08.2022 04:15 19,0 C 75 % 1010,1 hPa 0,0 l/m 0,0 km/h (0 Bft) SW 215 14,5 C 19,0 C 0,0 km/h (0 Bft)
17.08.2022 04:10 19,1 C 74 % 1010,0 hPa 0,0 l/m 0,0 km/h (0 Bft) SW 215 14,4 C 19,1 C 0,0 km/h (0 Bft)
17.08.2022 04:05 19,1 C 74 % 1010,1 hPa 0,0 l/m 0,0 km/h (0 Bft) SW 215 14,4 C 19,1 C 0,0 km/h (0 Bft)
17.08.2022 04:00 19,1 C 74 % 1010,1 hPa 0,0 l/m 0,0 km/h (0 Bft) SW 215 14,4 C 19,1 C 0,0 km/h (0 Bft)
17.08.2022 03:55 19,1 C 74 % 1010,1 hPa 0,0 l/m 0,0 km/h (0 Bft) SW 215 14,4 C 19,1 C 0,0 km/h (0 Bft)
17.08.2022 03:50 19,1 C 74 % 1010,1 hPa 0,0 l/m 0,0 km/h (0 Bft) SW 217 14,4 C 19,1 C 0,0 km/h (0 Bft)
17.08.2022 03:45 19,0 C 74 % 1010,2 hPa 0,0 l/m 0,0 km/h (0 Bft) SW 217 14,3 C 19,0 C 0,0 km/h (0 Bft)
17.08.2022 03:40 18,9 C 74 % 1010,1 hPa 0,0 l/m 0,0 km/h (0 Bft) SW 217 14,2 C 18,9 C 0,0 km/h (0 Bft)
17.08.2022 03:35 18,9 C 74 % 1010,0 hPa 0,0 l/m 0,0 km/h (0 Bft) SW 217 14,2 C 18,9 C 0,0 km/h (0 Bft)
17.08.2022 03:30 18,8 C 75 % 1010,1 hPa 0,0 l/m 0,0 km/h (0 Bft) SW 217 14,3 C 18,8 C 0,0 km/h (0 Bft)
17.08.2022 03:25 18,8 C 75 % 1010,1 hPa 0,0 l/m 0,0 km/h (0 Bft) SW 217 14,3 C 18,8 C 0,0 km/h (0 Bft)
17.08.2022 03:20 18,7 C 75 % 1010,2 hPa 0,0 l/m 0,0 km/h (0 Bft) SW 217 14,2 C 18,7 C 0,0 km/h (0 Bft)
17.08.2022 03:15 18,7 C 75 % 1010,2 hPa 0,0 l/m 0,0 km/h (0 Bft) SW 217 14,2 C 18,7 C 0,0 km/h (0 Bft)
17.08.2022 03:10 18,7 C 75 % 1010,1 hPa 0,0 l/m 0,0 km/h (0 Bft) SW 217 14,2 C 18,7 C 0,0 km/h (0 Bft)
17.08.2022 03:05 18,7 C 75 % 1010,1 hPa 0,0 l/m 0,0 km/h (0 Bft) SW 217 14,2 C 18,7 C 0,0 km/h (0 Bft)
17.08.2022 03:00 18,7 C 75 % 1010,1 hPa 0,0 l/m 0,0 km/h (0 Bft) SW 217 14,2 C 18,7 C 0,0 km/h (0 Bft)
17.08.2022 02:55 18,7 C 75 % 1010,2 hPa 0,0 l/m 0,0 km/h (0 Bft) SW 217 14,2 C 18,7 C 0,0 km/h (0 Bft)
17.08.2022 02:50 18,5 C 75 % 1010,2 hPa 0,0 l/m 0,0 km/h (0 Bft) SW 219 14,0 C 18,5 C 0,0 km/h (0 Bft)
17.08.2022 02:45 18,4 C 75 % 1010,3 hPa 0,0 l/m 0,0 km/h (0 Bft) SW 219 13,9 C 18,4 C 0,0 km/h (0 Bft)
17.08.2022 02:40 18,3 C 76 % 1010,3 hPa 0,0 l/m 0,0 km/h (0 Bft) SW 219 14,0 C 18,3 C 0,0 km/h (0 Bft)
17.08.2022 02:35 18,3 C 76 % 1010,4 hPa 0,0 l/m 0,0 km/h (0 Bft) SW 219 14,0 C 18,3 C 0,0 km/h (0 Bft)
17.08.2022 02:30 18,3 C 76 % 1010,4 hPa 0,0 l/m 0,0 km/h (0 Bft) SW 219 14,0 C 18,3 C 0,0 km/h (0 Bft)
17.08.2022 02:25 18,3 C 76 % 1010,4 hPa 0,0 l/m 0,0 km/h (0 Bft) SW 219 14,0 C 18,3 C 0,0 km/h (0 Bft)
17.08.2022 02:20 18,2 C 77 % 1010,3 hPa 0,0 l/m 0,0 km/h (0 Bft) SW 220 14,1 C 18,2 C 0,0 km/h (0 Bft)
17.08.2022 02:15 18,2 C 76 % 1010,3 hPa 0,0 l/m 0,0 km/h (0 Bft) SW 220 13,9 C 18,2 C 0,0 km/h (0 Bft)
17.08.2022 02:10 18,2 C 76 % 1010,3 hPa 0,0 l/m 0,0 km/h (0 Bft) SW 220 13,9 C 18,2 C 0,0 km/h (0 Bft)
17.08.2022 02:05 18,2 C 76 % 1010,3 hPa 0,0 l/m 0,0 km/h (0 Bft) SW 220 13,9 C 18,2 C 0,0 km/h (0 Bft)
17.08.2022 02:00 18,3 C 75 % 1010,3 hPa 0,0 l/m 0,0 km/h (0 Bft) SW 220 13,8 C 18,3 C 0,0 km/h (0 Bft)
17.08.2022 01:55 18,3 C 75 % 1010,3 hPa 0,0 l/m 0,0 km/h (0 Bft) SW 220 13,8 C 18,3 C 0,0 km/h (0 Bft)
17.08.2022 01:50 18,4 C 75 % 1010,4 hPa 0,0 l/m 0,0 km/h (0 Bft) SW 220 13,9 C 18,4 C 0,0 km/h (0 Bft)
17.08.2022 01:45 18,5 C 74 % 1010,4 hPa 0,0 l/m 0,0 km/h (0 Bft) SW 220 13,8 C 18,5 C 0,0 km/h (0 Bft)
17.08.2022 01:40 18,4 C 74 % 1010,4 hPa 0,0 l/m 0,0 km/h (0 Bft) SW 219 13,7 C 18,4 C 0,0 km/h (0 Bft)
17.08.2022 01:35 18,4 C 74 % 1010,4 hPa 0,0 l/m 0,0 km/h (0 Bft) SW 219 13,7 C 18,4 C 0,0 km/h (0 Bft)
17.08.2022 01:30 18,3 C 75 % 1010,4 hPa 0,0 l/m 0,0 km/h (0 Bft) SW 219 13,8 C 18,3 C 0,0 km/h (0 Bft)
17.08.2022 01:25 18,3 C 76 % 1010,5 hPa 0,0 l/m 0,0 km/h (0 Bft) SW 219 14,0 C 18,3 C 0,0 km/h (0 Bft)
17.08.2022 01:20 18,3 C 76 % 1010,5 hPa 0,0 l/m 0,0 km/h (0 Bft) SW 219 14,0 C 18,3 C 0,0 km/h (0 Bft)
17.08.2022 01:15 18,4 C 75 % 1010,7 hPa 0,0 l/m 0,0 km/h (0 Bft) SW 219 13,9 C 18,4 C 0,0 km/h (0 Bft)
17.08.2022 01:10 18,5 C 75 % 1010,5 hPa 0,0 l/m 0,0 km/h (0 Bft) SW 219 14,0 C 18,5 C 0,0 km/h (0 Bft)
17.08.2022 01:05 18,6 C 75 % 1010,7 hPa 0,0 l/m 0,0 km/h (0 Bft) SW 221 14,1 C 18,6 C 0,0 km/h (0 Bft)
17.08.2022 01:00 18,7 C 75 % 1010,6 hPa 0,0 l/m 0,0 km/h (0 Bft) SW 221 14,2 C 18,7 C 0,0 km/h (0 Bft)
17.08.2022 00:55 18,8 C 74 % 1010,6 hPa 0,0 l/m 0,0 km/h (0 Bft) SW 221 14,1 C 18,8 C 0,0 km/h (0 Bft)
17.08.2022 00:50 19,0 C 74 % 1010,6 hPa 0,0 l/m 0,0 km/h (0 Bft) SW 221 14,3 C 19,0 C 0,0 km/h (0 Bft)
17.08.2022 00:45 19,1 C 74 % 1010,5 hPa 0,0 l/m 0,0 km/h (0 Bft) SW 221 14,4 C 19,1 C 0,0 km/h (0 Bft)
17.08.2022 00:40 19,2 C 73 % 1010,5 hPa 0,0 l/m 0,0 km/h (0 Bft) SW 221 14,2 C 19,2 C 0,0 km/h (0 Bft)
17.08.2022 00:35 19,3 C 73 % 1010,5 hPa 0,0 l/m 0,0 km/h (0 Bft) SW 221 14,3 C 19,3 C 0,0 km/h (0 Bft)
17.08.2022 00:30 19,4 C 73 % 1010,5 hPa 0,0 l/m 0,0 km/h (0 Bft) SW 221 14,4 C 19,4 C 0,0 km/h (0 Bft)
17.08.2022 00:25 19,6 C 72 % 1010,5 hPa 0,0 l/m 0,0 km/h (0 Bft) SW 221 14,4 C 19,6 C 0,0 km/h (0 Bft)
17.08.2022 00:20 19,7 C 72 % 1010,6 hPa 0,0 l/m 0,0 km/h (0 Bft) SW 221 14,5 C 19,7 C 0,0 km/h (0 Bft)
17.08.2022 00:15 19,9 C 71 % 1010,5 hPa 0,0 l/m 0,0 km/h (0 Bft) SW 221 14,5 C 19,9 C 0,0 km/h (0 Bft)
17.08.2022 00:10 20,3 C 70 % 1010,4 hPa 0,0 l/m 0,0 km/h (0 Bft) SW 221 14,6 C 20,3 C 0,0 km/h (0 Bft)
17.08.2022 00:05 20,6 C 69 % 1010,5 hPa 0,0 l/m 0,0 km/h (0 Bft) SW 221 14,7 C 20,6 C 0,0 km/h (0 Bft)
17.08.2022 00:00 20,7 C 69 % 1010,5 hPa 0,0 l/m 0,0 km/h (0 Bft) SW 221 14,8 C 20,7 C 0,0 km/h (0 Bft)
16.08.2022 23:55 20,9 C 68 % 1010,3 hPa 0,0 l/m 0,0 km/h (0 Bft) SW 221 14,8 C 20,9 C 0,0 km/h (0 Bft)
16.08.2022 23:50 21,1 C 68 % 1010,4 hPa 0,0 l/m 0,0 km/h (0 Bft) SW 221 15,0 C 21,1 C 0,0 km/h (0 Bft)
16.08.2022 23:45 21,2 C 67 % 1010,4 hPa 0,0 l/m 0,0 km/h (0 Bft) SW 221 14,8 C 21,2 C 0,0 km/h (0 Bft)
16.08.2022 23:40 21,4 C 67 % 1010,4 hPa 0,0 l/m 0,0 km/h (0 Bft) SW 221 15,0 C 21,4 C 0,0 km/h (0 Bft)
16.08.2022 23:35 21,5 C 66 % 1010,5 hPa 0,0 l/m 0,0 km/h (0 Bft) SW 221 14,9 C 21,5 C 0,0 km/h (0 Bft)
16.08.2022 23:30 21,6 C 66 % 1010,5 hPa 0,0 l/m 0,0 km/h (0 Bft) SW 221 15,0 C 21,6 C 0,0 km/h (0 Bft)
16.08.2022 23:25 21,8 C 65 % 1010,4 hPa 0,0 l/m 0,0 km/h (0 Bft) SW 221 14,9 C 21,8 C 0,0 km/h (0 Bft)
16.08.2022 23:20 21,8 C 65 % 1010,6 hPa 0,0 l/m 0,0 km/h (0 Bft) SW 221 14,9 C 21,8 C 0,0 km/h (0 Bft)
16.08.2022 23:15 21,9 C 64 % 1010,6 hPa 0,0 l/m 0,0 km/h (0 Bft) SW 221 14,8 C 21,9 C 0,0 km/h (0 Bft)
16.08.2022 23:10 22,0 C 64 % 1010,6 hPa 0,0 l/m 0,0 km/h (0 Bft) SW 221 14,9 C 22,0 C 1,6 km/h (1 Bft)
16.08.2022 23:05 22,1 C 65 % 1010,7 hPa 0,0 l/m 0,7 km/h (0 Bft) SW 221 15,2 C 22,1 C 3,2 km/h (1 Bft)
16.08.2022 23:00 22,1 C 65 % 1010,7 hPa 0,0 l/m 0,4 km/h (0 Bft) SW 221 15,2 C 22,1 C 3,2 km/h (1 Bft)
16.08.2022 22:55 22,1 C 65 % 1010,7 hPa 0,0 l/m 0,0 km/h (0 Bft) SW 229 15,2 C 22,1 C 0,0 km/h (0 Bft)
16.08.2022 22:50 22,2 C 65 % 1010,7 hPa 0,0 l/m 0,0 km/h (0 Bft) SW 229 15,3 C 22,2 C 0,0 km/h (0 Bft)
16.08.2022 22:45 22,1 C 65 % 1010,8 hPa 0,0 l/m 0,0 km/h (0 Bft) SW 229 15,2 C 22,1 C 0,0 km/h (0 Bft)
16.08.2022 22:40 22,1 C 66 % 1010,8 hPa 0,0 l/m 2,4 km/h (1 Bft) SW 229 15,4 C 22,1 C 6,4 km/h (2 Bft)
16.08.2022 22:35 22,0 C 67 % 1010,7 hPa 0,0 l/m 2,8 km/h (1 Bft) SW 223 15,6 C 22,0 C 4,8 km/h (1 Bft)
16.08.2022 22:30 22,0 C 67 % 1010,7 hPa 0,0 l/m 2,1 km/h (1 Bft) SW 219 15,6 C 22,0 C 6,4 km/h (2 Bft)
16.08.2022 22:25 22,1 C 67 % 1010,6 hPa 0,0 l/m 0,6 km/h (0 Bft) N-NW 332 15,7 C 22,1 C 4,8 km/h (1 Bft)
16.08.2022 22:20 22,0 C 66 % 1010,5 hPa 0,0 l/m 0,0 km/h (0 Bft) N 355 15,3 C 22,0 C 0,0 km/h (0 Bft)
16.08.2022 22:15 22,0 C 66 % 1010,5 hPa 0,0 l/m 0,3 km/h (0 Bft) N 355 15,3 C 22,0 C 3,2 km/h (1 Bft)
16.08.2022 22:10 22,2 C 66 % 1010,5 hPa 0,0 l/m 2,0 km/h (1 Bft) N 355 15,5 C 22,2 C 4,8 km/h (1 Bft)
16.08.2022 22:05 22,4 C 65 % 1010,3 hPa 0,0 l/m 0,3 km/h (0 Bft) N 5 15,5 C 22,4 C 4,8 km/h (1 Bft)
16.08.2022 22:00 22,5 C 64 % 1010,4 hPa 0,0 l/m 0,0 km/h (0 Bft) SO 128 15,3 C 22,5 C 0,0 km/h (0 Bft)
16.08.2022 21:55 22,6 C 64 % 1010,2 hPa 0,0 l/m 0,0 km/h (0 Bft) SO 128 15,4 C 22,6 C 0,0 km/h (0 Bft)
16.08.2022 21:50 22,7 C 64 % 1010,1 hPa 0,0 l/m 0,0 km/h (0 Bft) SO 128 15,5 C 22,7 C 0,0 km/h (0 Bft)
16.08.2022 21:45 22,9 C 64 % 1010,2 hPa 0,0 l/m 0,0 km/h (0 Bft) SO 128 15,7 C 22,9 C 0,0 km/h (0 Bft)
16.08.2022 21:40 23,1 C 63 % 1010,1 hPa 0,0 l/m 0,0 km/h (0 Bft) SO 128 15,7 C 23,1 C 0,0 km/h (0 Bft)
16.08.2022 21:35 23,3 C 64 % 1010,1 hPa 0,0 l/m 0,0 km/h (0 Bft) SO 128 16,1 C 23,3 C 0,0 km/h (0 Bft)
16.08.2022 21:30 23,4 C 63 % 1010,0 hPa 0,0 l/m 0,0 km/h (0 Bft) SO 128 15,9 C 23,4 C 0,0 km/h (0 Bft)
16.08.2022 21:25 23,8 C 62 % 1009,9 hPa 0,0 l/m 0,0 km/h (0 Bft) SO 128 16,1 C 23,8 C 0,0 km/h (0 Bft)
16.08.2022 21:20 24,1 C 62 % 1009,8 hPa 0,0 l/m 0,0 km/h (0 Bft) SO 128 16,4 C 24,1 C 0,0 km/h (0 Bft)
16.08.2022 21:15 24,4 C 61 % 1009,7 hPa 0,0 l/m 0,0 km/h (0 Bft) SO 128 16,4 C 24,4 C 0,0 km/h (0 Bft)
16.08.2022 21:10 24,8 C 61 % 1009,6 hPa 0,0 l/m 0,0 km/h (0 Bft) SO 128 16,8 C 24,8 C 0,0 km/h (0 Bft)
16.08.2022 21:05 25,1 C 60 % 1009,7 hPa 0,0 l/m 0,0 km/h (0 Bft) SO 128 16,8 C 25,1 C 0,0 km/h (0 Bft)
16.08.2022 21:00 25,4 C 59 % 1009,6 hPa 0,0 l/m 0,0 km/h (0 Bft) SO 128 16,8 C 25,4 C 0,0 km/h (0 Bft)
16.08.2022 20:55 25,7 C 59 % 1009,4 hPa 0,0 l/m 0,0 km/h (0 Bft) SO 128 17,1 C 25,7 C 0,0 km/h (0 Bft)
16.08.2022 20:50 25,9 C 58 % 1009,4 hPa 0,0 l/m 0,0 km/h (0 Bft) SO 128 17,0 C 25,9 C 0,0 km/h (0 Bft)
16.08.2022 20:45 26,2 C 59 % 1009,5 hPa 0,0 l/m 0,0 km/h (0 Bft) SO 128 17,5 C 26,2 C 0,0 km/h (0 Bft)
16.08.2022 20:40 26,3 C 59 % 1009,4 hPa 0,0 l/m 0,0 km/h (0 Bft) SO 128 17,6 C 26,3 C 0,0 km/h (0 Bft)
16.08.2022 20:35 26,6 C 58 % 1009,4 hPa 0,0 l/m 0,0 km/h (0 Bft) SO 128 17,6 C 26,6 C 0,0 km/h (0 Bft)
16.08.2022 20:30 26,9 C 57 % 1009,4 hPa 0,0 l/m 0,0 km/h (0 Bft) SO 128 17,6 C 26,9 C 0,0 km/h (0 Bft)
16.08.2022 20:25 27,2 C 56 % 1009,4 hPa 0,0 l/m 0,0 km/h (0 Bft) SO 128 17,6 C 27,2 C 0,0 km/h (0 Bft)
16.08.2022 20:20 27,6 C 55 % 1009,4 hPa 0,0 l/m 0,0 km/h (0 Bft) SO 128 17,7 C 27,6 C 0,0 km/h (0 Bft)
16.08.2022 20:15 28,0 C 54 % 1009,4 hPa 0,0 l/m 0,0 km/h (0 Bft) SO 128 17,8 C 28,0 C 0,0 km/h (0 Bft)
16.08.2022 20:10 28,3 C 53 % 1009,4 hPa 0,0 l/m 0,0 km/h (0 Bft) SO 128 17,8 C 28,3 C 0,0 km/h (0 Bft)
16.08.2022 20:05 28,8 C 51 % 1009,4 hPa 0,0 l/m 0,0 km/h (0 Bft) SO 128 17,6 C 28,8 C 0,0 km/h (0 Bft)
16.08.2022 20:00 29,0 C 46 % 1009,4 hPa 0,0 l/m 0,0 km/h (0 Bft) O-NO 76 16,2 C 29,0 C 0,0 km/h (0 Bft)
16.08.2022 19:55 29,1 C 42 % 1009,4 hPa 0,0 l/m 0,0 km/h (0 Bft) O-NO 76 14,9 C 29,1 C 0,0 km/h (0 Bft)
16.08.2022 19:50 29,2 C 42 % 1009,3 hPa 0,0 l/m 0,9 km/h (0 Bft) O-NO 76 14,9 C 29,2 C 4,8 km/h (1 Bft)
16.08.2022 19:45 29,4 C 41 % 1009,4 hPa 0,0 l/m 0,5 km/h (0 Bft) O 83 14,7 C 29,4 C 4,8 km/h (1 Bft)
16.08.2022 19:40 29,6 C 41 % 1009,3 hPa 0,0 l/m 0,7 km/h (0 Bft) SO 138 14,9 C 29,6 C 3,2 km/h (1 Bft)
16.08.2022 19:35 29,9 C 41 % 1009,4 hPa 0,0 l/m 0,1 km/h (0 Bft) SO 138 15,2 C 29,9 C 3,2 km/h (1 Bft)
16.08.2022 19:30 30,1 C 40 % 1009,3 hPa 0,0 l/m 0,2 km/h (0 Bft) O-SO 120 15,0 C 30,1 C 3,2 km/h (1 Bft)
16.08.2022 19:25 30,3 C 40 % 1009,3 hPa 0,0 l/m 0,8 km/h (0 Bft) O-SO 115 15,2 C 30,3 C 4,8 km/h (1 Bft)
16.08.2022 19:20 30,3 C 41 % 1009,4 hPa 0,0 l/m 1,3 km/h (1 Bft) O-SO 103 15,6 C 30,3 C 4,8 km/h (1 Bft)
16.08.2022 19:15 30,4 C 40 % 1009,2 hPa 0,0 l/m 0,3 km/h (0 Bft) O 101 15,3 C 30,4 C 3,2 km/h (1 Bft)
16.08.2022 19:10 30,4 C 40 % 1009,3 hPa 0,0 l/m 0,3 km/h (0 Bft) O-SO 114 15,3 C 30,4 C 4,8 km/h (1 Bft)
16.08.2022 19:05 30,4 C 40 % 1009,4 hPa 0,0 l/m 0,8 km/h (0 Bft) S-SW 194 15,3 C 30,4 C 6,4 km/h (2 Bft)
16.08.2022 19:00 30,5 C 41 % 1009,5 hPa 0,0 l/m 0,3 km/h (0 Bft) S 182 15,7 C 30,5 C 3,2 km/h (1 Bft)
16.08.2022 18:55 30,6 C 41 % 1009,5 hPa 0,0 l/m 1,4 km/h (1 Bft) S 190 15,8 C 30,6 C 4,8 km/h (1 Bft)
16.08.2022 18:50 30,5 C 41 % 1009,5 hPa 0,0 l/m 0,1 km/h (0 Bft) S-SW 209 15,7 C 30,5 C 1,6 km/h (1 Bft)
16.08.2022 18:45 30,3 C 42 % 1009,5 hPa 0,0 l/m 0,3 km/h (0 Bft) S-SW 209 15,9 C 30,3 C 4,8 km/h (1 Bft)
16.08.2022 18:40 30,0 C 42 % 1009,5 hPa 0,0 l/m 0,1 km/h (0 Bft) SW 215 15,7 C 30,0 C 3,2 km/h (1 Bft)
16.08.2022 18:35 29,9 C 43 % 1009,6 hPa 0,0 l/m 0,3 km/h (0 Bft) S-SW 205 15,9 C 29,9 C 4,8 km/h (1 Bft)
16.08.2022 18:30 29,9 C 42 % 1009,5 hPa 0,0 l/m 0,0 km/h (0 Bft) SO 132 15,6 C 29,9 C 0,0 km/h (0 Bft)
16.08.2022 18:25 29,9 C 42 % 1009,5 hPa 0,0 l/m 0,2 km/h (0 Bft) SO 132 15,6 C 29,9 C 3,2 km/h (1 Bft)
16.08.2022 18:20 29,8 C 42 % 1009,5 hPa 0,0 l/m 0,7 km/h (0 Bft) O-SO 122 15,5 C 29,8 C 4,8 km/h (1 Bft)
16.08.2022 18:15 29,5 C 43 % 1009,5 hPa 0,0 l/m 0,1 km/h (0 Bft) S-SO 148 15,6 C 29,5 C 1,6 km/h (1 Bft)
16.08.2022 18:10 29,3 C 43 % 1009,5 hPa 0,0 l/m 0,1 km/h (0 Bft) O-NO 71 15,4 C 29,3 C 1,6 km/h (1 Bft)
16.08.2022 18:05 29,2 C 44 % 1009,4 hPa 0,0 l/m 0,9 km/h (0 Bft) O-NO 71 15,7 C 29,2 C 4,8 km/h (1 Bft)
16.08.2022 18:00 29,1 C 44 % 1009,5 hPa 0,0 l/m 1,6 km/h (1 Bft) O-NO 71 15,6 C 29,1 C 6,4 km/h (2 Bft)
16.08.2022 17:55 28,9 C 45 % 1009,6 hPa 0,0 l/m 0,0 km/h (0 Bft) O 80 15,8 C 28,9 C 0,0 km/h (0 Bft)
16.08.2022 17:50 28,8 C 45 % 1009,6 hPa 0,0 l/m 0,7 km/h (0 Bft) O 82 15,7 C 28,8 C 8,0 km/h (2 Bft)
16.08.2022 17:45 28,6 C 46 % 1009,4 hPa 0,0 l/m 0,0 km/h (0 Bft) N 5 15,8 C 28,6 C 0,0 km/h (0 Bft)
16.08.2022 17:40 28,3 C 47 % 1009,6 hPa 0,0 l/m 0,0 km/h (0 Bft) N 5 15,9 C 28,3 C 0,0 km/h (0 Bft)
16.08.2022 17:35 27,9 C 47 % 1009,5 hPa 0,0 l/m 0,0 km/h (0 Bft) N 5 15,5 C 27,9 C 1,6 km/h (1 Bft)
16.08.2022 17:30 27,7 C 48 % 1009,4 hPa 0,0 l/m 1,7 km/h (1 Bft) NW 317 15,7 C 27,7 C 4,8 km/h (1 Bft)
16.08.2022 17:25 27,4 C 49 % 1009,5 hPa 0,0 l/m 1,0 km/h (0 Bft) NW 315 15,7 C 27,4 C 4,8 km/h (1 Bft)
16.08.2022 17:20 27,2 C 51 % 1009,5 hPa 0,0 l/m 0,6 km/h (0 Bft) NW 311 16,2 C 27,2 C 3,2 km/h (1 Bft)
16.08.2022 17:15 27,1 C 51 % 1009,6 hPa 0,0 l/m 1,3 km/h (1 Bft) NW 311 16,1 C 27,1 C 3,2 km/h (1 Bft)
16.08.2022 17:10 27,1 C 54 % 1009,6 hPa 0,0 l/m 4,2 km/h (1 Bft) NW 308 17,0 C 27,1 C 11,3 km/h (2 Bft)
16.08.2022 17:05 27,9 C 55 % 1009,7 hPa 0,0 l/m 6,0 km/h (2 Bft) W-NW 286 18,0 C 27,9 C 12,9 km/h (3 Bft)
16.08.2022 17:00 28,6 C 50 % 1009,6 hPa 0,0 l/m 3,3 km/h (1 Bft) W-SW 242 17,1 C 28,6 C 8,0 km/h (2 Bft)
_ Min-Zeit 05:30 19:05 19:15 - 17:35 - - 01:35 05:30 17:40
Minimum _ 17,9 C 40 % 1009,2 hPa - 0,0 km/h (0 Bft) - - 13,7 C 17,9 C 0,0 km/h (0 Bft)
_ Max-Zeit 18:55 11:40 13:15 11:15 15:40 - - 12:15 18:55 13:45
Maximum _ 30,6 C 85 % 1012,4 hPa 0,2 l/m 7,4 km/h
W (2 Bft)
- - 18,0 C 30,6 C 17,7 km/h
W (3 Bft)
Durchschnitt _ 22,9 C 65 % 1010,6 hPa #0,2 l/m 1,7 km/h (1 Bft) SW - 15,8 C 22,9 C 4,6 km/h (1 Bft)
www.klaudt.eu